createdAt,value
2017-04-14T00:00:55.559Z,8.12
2017-04-14T00:01:55.109Z,6.60
2017-04-14T00:02:55.015Z,10.05
2017-04-14T00:03:55.016Z,6.77
2017-04-14T00:04:54.599Z,9.65
2017-04-14T00:05:54.279Z,6.77
2017-04-14T00:06:53.835Z,7.40
2017-04-14T00:07:53.991Z,6.63
2017-04-14T00:08:53.577Z,9.47
2017-04-14T00:09:53.194Z,5.88
2017-04-14T00:10:52.731Z,7.27
2017-04-14T00:11:52.319Z,8.77
2017-04-14T00:12:51.883Z,7.08
2017-04-14T00:13:51.433Z,4.73
2017-04-14T00:14:50.994Z,5.67
2017-04-14T00:15:50.680Z,4.72
2017-04-14T00:16:50.415Z,5.85
2017-04-14T00:17:50.097Z,5.18
2017-04-14T00:18:49.631Z,9.58
2017-04-14T00:19:49.992Z,6.98
2017-04-14T00:20:49.687Z,4.65
2017-04-14T00:21:49.263Z,8.95
2017-04-14T00:22:49.595Z,8.72
2017-04-14T00:23:49.164Z,6.00
2017-04-14T00:24:48.863Z,7.35
2017-04-14T00:25:49.219Z,6.82
2017-04-14T00:26:48.888Z,5.25
2017-04-14T00:27:49.560Z,10.80
2017-04-14T00:28:49.279Z,11.10
2017-04-14T00:29:48.962Z,5.37
2017-04-14T00:30:48.559Z,6.23
2017-04-14T00:31:48.368Z,7.50
2017-04-14T00:32:48.010Z,10.15
2017-04-14T00:33:48.298Z,5.85
2017-04-14T00:34:48.598Z,4.72
2017-04-14T00:35:48.416Z,8.03
2017-04-14T00:36:48.051Z,7.48
2017-04-14T00:37:47.587Z,5.43
2017-04-14T00:38:47.190Z,6.27
2017-04-14T00:39:46.771Z,12.27
2017-04-14T00:40:46.389Z,5.95
2017-04-14T00:41:45.927Z,7.45
2017-04-14T00:42:45.623Z,6.18
2017-04-14T00:43:45.324Z,8.47
2017-04-14T00:44:45.642Z,9.15
2017-04-14T00:45:45.987Z,7.08
2017-04-14T00:46:45.518Z,7.75
2017-04-14T00:47:45.084Z,6.08
2017-04-14T00:48:44.700Z,6.18
2017-04-14T00:49:44.777Z,8.07
2017-04-14T00:50:45.844Z,6.53
2017-04-14T00:51:45.411Z,6.52
2017-04-14T00:52:45.056Z,7.67
2017-04-14T00:53:44.691Z,5.53
2017-04-14T00:54:44.228Z,8.60
2017-04-14T00:55:44.047Z,6.97
2017-04-14T00:56:43.675Z,5.82
2017-04-14T00:57:44.272Z,5.83
2017-04-14T00:58:43.838Z,6.92
2017-04-14T00:59:43.575Z,6.35
2017-04-14T01:00:43.180Z,9.53
2017-04-14T01:01:42.975Z,5.08
2017-04-14T01:02:42.572Z,6.55
2017-04-14T01:03:42.120Z,5.55
2017-04-14T01:04:41.722Z,6.00
2017-04-14T01:05:41.478Z,8.72
2017-04-14T01:06:41.075Z,5.70
2017-04-14T01:07:40.695Z,8.42
2017-04-14T01:08:40.726Z,6.73
2017-04-14T01:09:40.252Z,5.70
2017-04-14T01:10:39.998Z,5.80
2017-04-14T01:11:40.311Z,5.55
2017-04-14T01:12:39.897Z,7.72
2017-04-14T01:13:40.163Z,7.05
2017-04-14T01:14:39.860Z,5.72
2017-04-14T01:15:39.724Z,7.72
2017-04-14T01:16:39.291Z,5.33
2017-04-14T01:17:39.002Z,5.80
2017-04-14T01:18:38.609Z,6.98
2017-04-14T01:19:38.921Z,10.73
2017-04-14T01:20:38.512Z,9.25
2017-04-14T01:21:38.068Z,5.72
2017-04-14T01:22:37.700Z,5.13
2017-04-14T01:23:37.280Z,9.68
2017-04-14T01:24:36.866Z,5.52
2017-04-14T01:25:36.395Z,8.92
2017-04-14T01:26:35.941Z,8.02
2017-04-14T01:27:36.951Z,4.53
2017-04-14T01:28:36.720Z,4.53
2017-04-14T01:29:36.266Z,6.62
2017-04-14T01:30:35.790Z,7.88
2017-04-14T01:31:35.363Z,4.82
2017-04-14T01:32:34.992Z,7.82
2017-04-14T01:33:34.555Z,6.72
2017-04-14T01:34:34.123Z,7.47
2017-04-14T01:35:34.731Z,5.12
2017-04-14T01:36:34.303Z,7.02
2017-04-14T01:37:33.866Z,4.72
2017-04-14T01:38:34.151Z,8.23
2017-04-14T01:39:34.489Z,7.80
2017-04-14T01:40:34.211Z,5.93
2017-04-14T01:41:34.063Z,7.37
2017-04-14T01:42:34.727Z,5.43
2017-04-14T01:43:34.632Z,7.25
2017-04-14T01:44:34.227Z,5.88
2017-04-14T01:45:33.750Z,9.05
2017-04-14T01:46:34.067Z,12.05
2017-04-14T01:47:33.611Z,7.25
2017-04-14T01:48:33.183Z,8.28
2017-04-14T01:49:32.763Z,7.73
2017-04-14T01:50:32.509Z,4.48
2017-04-14T01:51:32.207Z,5.60
2017-04-14T01:52:31.740Z,7.58
2017-04-14T01:53:31.372Z,7.77
2017-04-14T01:54:31.027Z,7.60
2017-04-14T01:55:30.570Z,8.88
2017-04-14T01:56:30.124Z,7.60
2017-04-14T01:57:29.695Z,8.03
2017-04-14T01:58:29.244Z,11.60
2017-04-14T01:59:28.813Z,9.80
2017-04-14T02:00:28.407Z,6.98
2017-04-14T02:01:28.085Z,13.93
2017-04-14T02:02:27.836Z,12.32
2017-04-14T02:03:27.408Z,7.05
2017-04-14T02:04:27.068Z,8.27
2017-04-14T02:05:27.363Z,6.60
2017-04-14T02:06:26.892Z,5.03
2017-04-14T02:07:27.287Z,6.97
2017-04-14T02:08:27.927Z,7.05
2017-04-14T02:09:27.636Z,6.90
2017-04-14T02:10:27.315Z,7.62
2017-04-14T02:11:26.943Z,6.72
2017-04-14T02:12:26.483Z,6.72
2017-04-14T02:13:26.136Z,13.15
2017-04-14T02:14:25.783Z,7.52
2017-04-14T02:15:25.786Z,7.30
2017-04-14T02:16:25.331Z,7.10
2017-04-14T02:17:24.883Z,7.87
2017-04-14T02:18:24.454Z,4.73
2017-04-14T02:19:24.127Z,8.28
2017-04-14T02:20:23.779Z,7.12
2017-04-14T02:21:23.447Z,5.95
2017-04-14T02:22:23.644Z,5.88
2017-04-14T02:23:23.167Z,9.95
2017-04-14T02:24:22.727Z,5.60
2017-04-14T02:25:22.488Z,7.87
2017-04-14T02:26:22.171Z,5.67
2017-04-14T02:27:21.795Z,7.40
2017-04-14T02:28:21.370Z,6.48
2017-04-14T02:29:20.948Z,6.15
2017-04-14T02:30:20.552Z,6.53
2017-04-14T02:31:20.194Z,5.63
2017-04-14T02:32:19.914Z,5.95
2017-04-14T02:33:19.848Z,5.10
2017-04-14T02:34:19.493Z,7.75
2017-04-14T02:35:19.769Z,7.13
2017-04-14T02:36:19.350Z,8.92
2017-04-14T02:37:18.923Z,5.90
2017-04-14T02:38:19.249Z,5.50
2017-04-14T02:39:18.832Z,6.58
2017-04-14T02:40:18.360Z,6.98
2017-04-14T02:41:17.967Z,5.38
2017-04-14T02:42:17.555Z,5.68
2017-04-14T02:43:17.214Z,7.78
2017-04-14T02:44:17.448Z,5.52
2017-04-14T02:45:17.003Z,6.17
2017-04-14T02:46:16.582Z,6.33
2017-04-14T02:47:16.243Z,6.40
2017-04-14T02:48:16.743Z,10.87
2017-04-14T02:49:17.068Z,6.15
2017-04-14T02:50:16.644Z,6.43
2017-04-14T02:51:16.287Z,8.78
2017-04-14T02:52:15.966Z,6.08
2017-04-14T02:53:15.552Z,6.27
2017-04-14T02:54:15.107Z,7.77
2017-04-14T02:55:14.632Z,5.32
2017-04-14T02:56:14.224Z,8.70
2017-04-14T02:57:13.780Z,6.82
2017-04-14T02:58:13.583Z,5.22
2017-04-14T02:59:13.144Z,5.75
2017-04-14T03:00:13.459Z,9.20
2017-04-14T03:01:13.979Z,5.60
2017-04-14T03:02:13.623Z,5.78
2017-04-14T03:03:13.599Z,6.02
2017-04-14T03:04:13.161Z,5.80
2017-04-14T03:05:12.958Z,9.48
2017-04-14T03:06:12.672Z,6.25
2017-04-14T03:07:12.982Z,6.85
2017-04-14T03:08:12.730Z,4.38
2017-04-14T03:09:12.271Z,6.27
2017-04-14T03:10:12.104Z,5.17
2017-04-14T03:11:11.830Z,6.33
2017-04-14T03:12:11.397Z,6.57
2017-04-14T03:13:11.957Z,5.13
2017-04-14T03:14:11.555Z,6.53
2017-04-14T03:15:11.087Z,6.03
2017-04-14T03:16:10.644Z,7.00
2017-04-14T03:17:10.194Z,4.47
2017-04-14T03:18:10.652Z,5.95
2017-04-14T03:19:10.451Z,6.05
2017-04-14T03:20:09.983Z,7.58
2017-04-14T03:21:09.693Z,4.97
2017-04-14T03:22:09.941Z,4.80
2017-04-14T03:23:10.432Z,6.52
2017-04-14T03:24:10.023Z,6.38
2017-04-14T03:25:10.299Z,5.68
2017-04-14T03:26:10.124Z,7.00
2017-04-14T03:27:09.682Z,5.28
2017-04-14T03:28:09.851Z,6.70
2017-04-14T03:29:09.416Z,6.45
2017-04-14T03:30:09.170Z,6.95
2017-04-14T03:31:09.512Z,3.83
2017-04-14T03:32:09.067Z,4.22
2017-04-14T03:33:09.404Z,10.72
2017-04-14T03:34:09.694Z,5.20
2017-04-14T03:35:09.435Z,6.32
2017-04-14T03:36:09.044Z,5.27
2017-04-14T03:37:08.975Z,7.07
2017-04-14T03:38:08.525Z,7.58
2017-04-14T03:39:08.132Z,6.57
2017-04-14T03:40:07.703Z,4.92
2017-04-14T03:41:08.041Z,5.48
2017-04-14T03:42:07.658Z,6.45
2017-04-14T03:43:07.650Z,7.65
2017-04-14T03:44:07.184Z,4.60
2017-04-14T03:45:07.278Z,4.58
2017-04-14T03:46:06.887Z,7.07
2017-04-14T03:47:06.888Z,6.53
2017-04-14T03:48:06.495Z,5.53
2017-04-14T03:49:06.427Z,5.65
2017-04-14T03:50:06.015Z,5.97
2017-04-14T03:51:05.636Z,4.48
2017-04-14T03:52:05.975Z,6.85
2017-04-14T03:53:05.749Z,6.02
2017-04-14T03:54:05.284Z,5.00
2017-04-14T03:55:04.836Z,4.58
2017-04-14T03:56:04.416Z,5.10
2017-04-14T03:57:03.959Z,5.48
2017-04-14T03:58:03.598Z,7.07
2017-04-14T03:59:03.119Z,7.33
2017-04-14T04:00:02.714Z,4.90
2017-04-14T04:01:02.316Z,6.93
2017-04-14T04:02:02.138Z,4.37
2017-04-14T04:03:02.388Z,4.28
2017-04-14T04:04:02.028Z,4.25
2017-04-14T04:05:01.765Z,4.20
2017-04-14T04:06:01.555Z,6.12
2017-04-14T04:07:01.845Z,3.85
2017-04-14T04:08:01.521Z,4.38
2017-04-14T04:09:01.050Z,5.03
2017-04-14T04:10:00.634Z,8.08
2017-04-14T04:11:00.203Z,4.18
2017-04-14T04:11:59.807Z,4.15
2017-04-14T04:12:59.427Z,5.38
2017-04-14T04:13:59.132Z,3.87
2017-04-14T04:14:59.358Z,5.08
2017-04-14T04:15:59.107Z,6.47
2017-04-14T04:16:58.799Z,6.07
2017-04-14T04:17:58.640Z,5.30
2017-04-14T04:18:58.270Z,7.78
2017-04-14T04:19:58.568Z,4.73
2017-04-14T04:20:58.343Z,5.17
2017-04-14T04:21:58.050Z,6.22
2017-04-14T04:22:57.610Z,6.28
2017-04-14T04:23:57.365Z,4.58
2017-04-14T04:24:57.656Z,4.40
2017-04-14T04:25:57.260Z,5.33
2017-04-14T04:26:57.007Z,5.38
2017-04-14T04:27:56.631Z,4.80
2017-04-14T04:28:56.228Z,6.07
2017-04-14T04:29:55.838Z,6.73
2017-04-14T04:30:55.782Z,4.62
2017-04-14T04:32:01.309Z,7.10
2017-04-14T04:33:06.014Z,6.32
2017-04-14T04:34:12.144Z,4.95
2017-04-14T04:35:11.976Z,5.87
2017-04-14T04:36:11.578Z,4.00
2017-04-14T04:37:11.259Z,6.73
2017-04-14T04:38:10.970Z,5.68
2017-04-14T04:39:10.672Z,4.23
2017-04-14T04:40:10.344Z,3.75
2017-04-14T04:41:09.878Z,7.75
2017-04-14T04:42:09.466Z,5.67
2017-04-14T04:43:09.222Z,6.95
2017-04-14T04:44:08.791Z,6.07
2017-04-14T04:45:09.532Z,5.65
2017-04-14T04:46:09.250Z,4.85
2017-04-14T04:47:08.838Z,6.35
2017-04-14T04:48:08.409Z,4.32
2017-04-14T04:49:08.147Z,4.78
2017-04-14T04:50:07.727Z,4.27
2017-04-14T04:51:07.494Z,5.20
2017-04-14T04:52:07.151Z,5.05
2017-04-14T04:53:06.711Z,6.58
2017-04-14T04:54:07.119Z,5.30
2017-04-14T04:55:07.812Z,6.95
2017-04-14T04:56:07.483Z,5.33
2017-04-14T04:57:07.051Z,9.18
2017-04-14T04:58:07.792Z,3.78
2017-04-14T04:59:07.439Z,5.42
2017-04-14T05:00:07.171Z,3.88
2017-04-14T05:01:06.811Z,5.88
2017-04-14T05:02:06.398Z,4.37
2017-04-14T05:03:06.323Z,4.07
2017-04-14T05:04:05.923Z,4.00
2017-04-14T05:05:06.180Z,5.22
2017-04-14T05:06:05.756Z,5.62
2017-04-14T05:07:05.580Z,4.57
2017-04-14T05:08:05.313Z,6.10
2017-04-14T05:09:05.663Z,6.75
2017-04-14T05:10:05.207Z,3.67
2017-04-14T05:11:07.191Z,5.37
2017-04-14T05:12:06.825Z,3.87
2017-04-14T05:13:06.383Z,3.90
2017-04-14T05:14:05.916Z,3.28
2017-04-14T05:15:05.543Z,3.80
2017-04-14T05:16:05.877Z,7.15
2017-04-14T05:17:05.447Z,4.88
2017-04-14T05:18:05.555Z,4.07
2017-04-14T05:19:05.096Z,5.32
2017-04-14T05:20:04.640Z,9.05
2017-04-14T05:21:04.327Z,6.30
2017-04-14T05:22:03.855Z,4.95
2017-04-14T05:23:03.566Z,4.35
2017-04-14T05:24:03.096Z,7.67
2017-04-14T05:25:02.720Z,4.02
2017-04-14T05:26:02.868Z,6.67
2017-04-14T05:27:02.487Z,4.58
2017-04-14T05:28:02.060Z,9.78
2017-04-14T05:29:02.601Z,5.20
2017-04-14T05:30:02.246Z,5.52
2017-04-14T05:31:01.903Z,5.37
2017-04-14T05:32:01.639Z,10.58
2017-04-14T05:33:01.323Z,3.10
2017-04-14T05:34:01.108Z,5.10
2017-04-14T05:35:00.707Z,8.20
2017-04-14T05:36:00.260Z,8.88
2017-04-14T05:36:59.807Z,6.62
2017-04-14T05:37:59.635Z,7.38
2017-04-14T05:38:59.368Z,4.35
2017-04-14T05:39:59.875Z,3.52
2017-04-14T05:40:59.529Z,4.05
2017-04-14T05:41:59.067Z,3.93
2017-04-14T05:42:58.862Z,3.53
2017-04-14T05:43:58.439Z,3.90
2017-04-14T05:44:57.996Z,5.17
2017-04-14T05:45:58.300Z,3.58
2017-04-14T05:46:58.888Z,7.13
2017-04-14T05:47:58.468Z,4.72
2017-04-14T05:48:58.023Z,6.53
2017-04-14T05:49:57.779Z,6.32
2017-04-14T05:50:58.331Z,4.75
2017-04-14T05:51:58.632Z,4.07
2017-04-14T05:52:58.213Z,3.97
2017-04-14T05:53:57.794Z,5.32
2017-04-14T05:54:57.365Z,4.98
2017-04-14T05:55:56.943Z,4.95
2017-04-14T05:56:56.555Z,3.48
2017-04-14T05:57:57.728Z,4.27
2017-04-14T05:58:57.314Z,5.93
2017-04-14T05:59:56.900Z,5.68
2017-04-14T06:00:56.462Z,4.17
2017-04-14T06:01:56.067Z,6.72
2017-04-14T06:02:55.627Z,4.75
2017-04-14T06:03:55.179Z,6.35
2017-04-14T06:04:54.704Z,4.37
2017-04-14T06:05:54.228Z,3.73
2017-04-14T06:06:53.756Z,3.95
2017-04-14T06:07:53.436Z,5.23
2017-04-14T06:08:53.003Z,5.48
2017-04-14T06:09:52.548Z,6.13
2017-04-14T06:10:52.080Z,7.92
2017-04-14T06:11:51.799Z,4.95
2017-04-14T06:12:51.375Z,4.00
2017-04-14T06:13:50.976Z,6.77
2017-04-14T06:14:51.214Z,6.43
2017-04-14T06:15:50.761Z,4.58
2017-04-14T06:16:50.356Z,5.30
2017-04-14T06:17:50.630Z,4.28
2017-04-14T06:18:50.183Z,6.12
2017-04-14T06:19:49.729Z,5.05
2017-04-14T06:20:49.319Z,5.13
2017-04-14T06:21:48.868Z,5.07
2017-04-14T06:22:48.423Z,7.25
2017-04-14T06:23:48.044Z,4.83
2017-04-14T06:24:47.617Z,4.93
2017-04-14T06:25:47.215Z,6.48
2017-04-14T06:26:47.447Z,5.98
2017-04-14T06:27:47.016Z,4.65
2017-04-14T06:28:46.735Z,5.62
2017-04-14T06:29:46.309Z,4.98
2017-04-14T06:30:45.947Z,6.05
2017-04-14T06:31:45.515Z,5.52
2017-04-14T06:32:45.020Z,6.00
2017-04-14T06:33:44.603Z,4.10
2017-04-14T06:34:44.208Z,6.03
2017-04-14T06:35:43.804Z,5.28
2017-04-14T06:36:44.055Z,5.17
2017-04-14T06:37:43.770Z,4.58
2017-04-14T06:38:43.343Z,5.53
2017-04-14T06:39:42.891Z,5.30
2017-04-14T06:40:42.449Z,7.45
2017-04-14T06:41:42.055Z,3.68
2017-04-14T06:42:41.604Z,5.88
2017-04-14T06:43:41.202Z,4.42
2017-04-14T06:44:40.771Z,4.53
2017-04-14T06:45:40.342Z,8.12
2017-04-14T06:46:39.987Z,5.15
2017-04-14T06:47:40.332Z,4.47
2017-04-14T06:48:39.917Z,5.82
2017-04-14T06:49:39.449Z,4.72
2017-04-14T06:50:39.072Z,4.43
2017-04-14T06:51:38.609Z,5.42
2017-04-14T06:52:38.181Z,4.53
2017-04-14T06:53:37.763Z,4.97
2017-04-14T06:54:37.317Z,4.22
2017-04-14T06:55:36.918Z,5.48
2017-04-14T06:56:36.471Z,7.87
2017-04-14T06:57:36.057Z,5.15
2017-04-14T06:58:35.733Z,4.98
2017-04-14T06:59:35.339Z,5.72
2017-04-14T07:00:34.884Z,4.98
2017-04-14T07:01:34.524Z,6.07
2017-04-14T07:02:34.451Z,9.03
2017-04-14T07:03:33.987Z,7.03
2017-04-14T07:04:33.683Z,4.30
2017-04-14T07:05:33.385Z,4.45
2017-04-14T07:06:32.996Z,10.72
2017-04-14T07:07:33.404Z,7.93
2017-04-14T07:08:33.915Z,6.70
2017-04-14T07:09:33.477Z,8.08
2017-04-14T07:10:33.019Z,4.90
2017-04-14T07:11:33.326Z,4.20
2017-04-14T07:12:32.918Z,7.10
2017-04-14T07:13:32.585Z,5.93
2017-04-14T07:14:32.527Z,5.35
2017-04-14T07:15:32.076Z,7.47
2017-04-14T07:16:31.627Z,8.77
2017-04-14T07:17:32.110Z,8.10
2017-04-14T07:18:31.695Z,6.20
2017-04-14T07:19:32.575Z,6.30
2017-04-14T07:20:32.115Z,5.87
2017-04-14T07:21:31.656Z,8.20
2017-04-14T07:22:31.222Z,5.57
2017-04-14T07:23:30.980Z,8.28
2017-04-14T07:24:30.646Z,7.25
2017-04-14T07:25:30.215Z,9.57
2017-04-14T07:26:29.782Z,7.12
2017-04-14T07:27:29.592Z,9.33
2017-04-14T07:28:29.522Z,5.40
2017-04-14T07:29:29.119Z,5.50
2017-04-14T07:30:28.708Z,7.47
2017-04-14T07:31:28.291Z,8.08
2017-04-14T07:32:27.998Z,8.92
2017-04-14T07:33:27.652Z,6.43
2017-04-14T07:34:28.018Z,9.70
2017-04-14T07:35:27.950Z,7.33
2017-04-14T07:36:27.503Z,7.43
2017-04-14T07:37:27.060Z,6.62
2017-04-14T07:38:26.615Z,5.43
2017-04-14T07:39:26.217Z,8.00
2017-04-14T07:40:25.867Z,7.90
2017-04-14T07:41:25.514Z,9.40
2017-04-14T07:42:25.100Z,6.73
2017-04-14T07:43:24.704Z,8.40
2017-04-14T07:44:24.249Z,5.28
2017-04-14T07:45:23.776Z,10.18
2017-04-14T07:46:23.415Z,7.83
2017-04-14T07:47:22.965Z,8.15
2017-04-14T07:48:22.543Z,8.52
2017-04-14T07:49:22.078Z,10.33
2017-04-14T07:50:21.799Z,7.62
2017-04-14T07:51:21.347Z,9.45
2017-04-14T07:52:21.135Z,6.82
2017-04-14T07:53:20.694Z,8.30
2017-04-14T07:54:20.268Z,8.07
2017-04-14T07:55:19.872Z,8.95
2017-04-14T07:56:19.442Z,6.93
2017-04-14T07:57:19.774Z,7.65
2017-04-14T07:58:19.425Z,6.67
2017-04-14T07:59:18.997Z,8.63
2017-04-14T08:00:18.719Z,6.15
2017-04-14T08:01:18.291Z,7.88
2017-04-14T08:02:17.823Z,9.13
2017-04-14T08:03:17.652Z,7.85
2017-04-14T08:04:17.215Z,7.00
2017-04-14T08:05:16.777Z,7.87
2017-04-14T08:06:16.327Z,7.72
2017-04-14T08:07:16.023Z,8.52
2017-04-14T08:08:15.599Z,6.07
2017-04-14T08:09:15.183Z,5.92
2017-04-14T08:10:14.915Z,8.27
2017-04-14T08:11:14.489Z,5.92
2017-04-14T08:12:14.032Z,6.22
2017-04-14T08:13:13.759Z,5.98
2017-04-14T08:14:13.324Z,6.77
2017-04-14T08:15:12.864Z,7.32
2017-04-14T08:16:12.478Z,7.18
2017-04-14T08:17:12.113Z,5.88
2017-04-14T08:18:12.825Z,5.38
2017-04-14T08:19:12.433Z,4.80
2017-04-14T08:20:12.772Z,4.83
2017-04-14T08:21:12.437Z,7.98
2017-04-14T08:22:12.075Z,7.82
2017-04-14T08:23:11.664Z,5.50
2017-04-14T08:24:11.231Z,9.23
2017-04-14T08:25:10.784Z,6.10
2017-04-14T08:26:10.665Z,6.82
2017-04-14T08:27:10.234Z,7.38
2017-04-14T08:28:09.844Z,9.57
2017-04-14T08:29:09.520Z,8.60
2017-04-14T08:30:09.076Z,8.18
2017-04-14T08:31:08.690Z,7.40
2017-04-14T08:32:12.134Z,8.68
2017-04-14T08:33:11.731Z,13.33
2017-04-14T08:34:11.261Z,8.43
2017-04-14T08:35:11.493Z,8.10
2017-04-14T08:36:11.434Z,9.73
2017-04-14T08:37:11.151Z,15.38
2017-04-14T08:38:10.722Z,8.45
2017-04-14T08:39:10.720Z,10.90
2017-04-14T08:40:10.292Z,7.73
2017-04-14T08:41:09.884Z,6.90
2017-04-14T08:42:09.442Z,9.80
2017-04-14T08:43:09.062Z,7.73
2017-04-14T08:44:08.628Z,9.80
2017-04-14T08:45:08.323Z,9.87
2017-04-14T08:46:07.892Z,10.37
2017-04-14T08:47:07.477Z,8.63
2017-04-14T08:48:07.398Z,8.98
2017-04-14T08:49:06.951Z,8.05
2017-04-14T08:50:06.541Z,11.82
2017-04-14T08:51:06.103Z,8.38
2017-04-14T08:52:05.714Z,9.62
2017-04-14T08:53:05.336Z,10.32
2017-04-14T08:54:05.077Z,10.77
2017-04-14T08:55:04.683Z,13.62
2017-04-14T08:56:04.373Z,11.00
2017-04-14T08:57:04.156Z,10.90
2017-04-14T08:58:03.738Z,9.67
2017-04-14T08:59:03.443Z,10.15
2017-04-14T09:00:03.329Z,10.08
2017-04-14T09:01:02.890Z,10.20
2017-04-14T09:02:02.491Z,8.78
2017-04-14T09:03:02.542Z,9.82
2017-04-14T09:04:02.096Z,10.00
2017-04-14T09:05:01.803Z,9.55
2017-04-14T09:06:01.426Z,8.70
2017-04-14T09:07:00.943Z,8.10
2017-04-14T09:08:00.491Z,12.18
2017-04-14T09:09:00.121Z,12.83
2017-04-14T09:09:59.684Z,10.48
2017-04-14T09:10:59.737Z,12.22
2017-04-14T09:11:59.303Z,12.80
2017-04-14T09:12:58.896Z,14.87
2017-04-14T09:13:58.454Z,13.00
2017-04-14T09:14:58.015Z,16.38
2017-04-14T09:15:57.563Z,13.98
2017-04-14T09:16:57.632Z,13.62
2017-04-14T09:17:57.185Z,14.73
2017-04-14T09:18:56.792Z,13.32
2017-04-14T09:19:56.444Z,12.52
2017-04-14T09:20:56.016Z,12.90
2017-04-14T09:21:55.703Z,17.18
2017-04-14T09:22:55.292Z,17.40
2017-04-14T09:23:54.877Z,13.05
2017-04-14T09:24:54.547Z,12.48
2017-04-14T09:25:54.174Z,11.67
2017-04-14T09:26:54.529Z,13.07
2017-04-14T09:27:54.155Z,11.80
2017-04-14T09:28:53.801Z,12.38
2017-04-14T09:29:53.448Z,12.92
2017-04-14T09:30:53.083Z,12.25
2017-04-14T09:31:52.653Z,10.47
2017-04-14T09:32:53.028Z,12.03
2017-04-14T09:33:52.633Z,9.43
2017-04-14T09:34:52.243Z,9.37
2017-04-14T09:35:52.567Z,9.55
2017-04-14T09:36:52.146Z,8.70
2017-04-14T09:37:51.733Z,8.58
2017-04-14T09:38:51.303Z,8.35
2017-04-14T09:39:50.950Z,7.68
2017-04-14T09:40:50.484Z,14.32
2017-04-14T09:41:50.192Z,12.78
2017-04-14T09:42:50.483Z,9.73
2017-04-14T09:43:50.163Z,9.15
2017-04-14T09:44:49.758Z,9.22
2017-04-14T09:45:49.356Z,10.02
2017-04-14T09:46:49.283Z,12.00
2017-04-14T09:47:48.856Z,8.53
2017-04-14T09:48:48.452Z,9.55
2017-04-14T09:49:48.083Z,10.12
2017-04-14T09:50:47.711Z,11.12
2017-04-14T09:51:47.659Z,11.08
2017-04-14T09:52:47.272Z,10.07
2017-04-14T09:53:47.219Z,13.57
2017-04-14T09:54:46.873Z,11.30
2017-04-14T09:55:46.420Z,8.95
2017-04-14T09:56:46.008Z,10.55
2017-04-14T09:57:45.581Z,9.83
2017-04-14T09:58:45.103Z,9.28
2017-04-14T09:59:44.680Z,10.23
2017-04-14T10:00:44.288Z,10.72
2017-04-14T10:01:43.960Z,9.78
2017-04-14T10:02:43.591Z,10.98
2017-04-14T10:03:43.555Z,13.48
2017-04-14T10:04:43.152Z,10.97
2017-04-14T10:05:42.818Z,12.92
2017-04-14T10:06:42.371Z,17.45
2017-04-14T10:07:41.971Z,14.10
2017-04-14T10:08:41.616Z,11.70
2017-04-14T10:09:41.202Z,13.35
2017-04-14T10:10:40.762Z,11.45
2017-04-14T10:11:40.339Z,13.05
2017-04-14T10:12:40.545Z,12.25
2017-04-14T10:13:40.146Z,12.65
2017-04-14T10:14:39.716Z,11.38
2017-04-14T10:15:39.514Z,13.58
2017-04-14T10:16:39.205Z,11.62
2017-04-14T10:17:39.247Z,13.08
2017-04-14T10:18:38.936Z,9.87
2017-04-14T10:19:38.511Z,10.65
2017-04-14T10:20:38.068Z,11.05
2017-04-14T10:21:38.058Z,10.08
2017-04-14T10:22:37.636Z,9.42
2017-04-14T10:23:37.385Z,10.80
2017-04-14T10:24:36.961Z,9.55
2017-04-14T10:25:36.612Z,13.00
2017-04-14T10:26:36.192Z,9.20
2017-04-14T10:27:35.737Z,10.37
2017-04-14T10:28:35.365Z,12.23
2017-04-14T10:29:35.002Z,9.18
2017-04-14T10:30:34.765Z,9.62
2017-04-14T10:31:34.364Z,8.67
2017-04-14T10:32:34.247Z,7.72
2017-04-14T10:33:33.918Z,7.08
2017-04-14T10:34:33.503Z,7.15
2017-04-14T10:35:33.175Z,8.05
2017-04-14T10:36:32.826Z,7.25
2017-04-14T10:37:32.435Z,6.55
2017-04-14T10:38:32.010Z,7.23
2017-04-14T10:39:32.239Z,7.20
2017-04-14T10:40:31.827Z,6.95
2017-04-14T10:41:31.413Z,8.13
2017-04-14T10:42:30.983Z,6.38
2017-04-14T10:43:30.566Z,7.78
2017-04-14T10:44:30.838Z,7.20
2017-04-14T10:45:30.425Z,8.80
2017-04-14T10:46:30.007Z,8.98
2017-04-14T10:47:30.300Z,9.55
2017-04-14T10:48:30.327Z,8.30
2017-04-14T10:49:29.900Z,6.72
2017-04-14T10:50:29.528Z,7.02
2017-04-14T10:51:29.083Z,7.23
2017-04-14T10:52:28.655Z,7.05
2017-04-14T10:53:28.875Z,7.63
2017-04-14T10:54:28.585Z,6.63
2017-04-14T10:55:28.191Z,6.93
2017-04-14T10:56:27.759Z,6.70
2017-04-14T10:57:27.314Z,8.42
2017-04-14T10:58:26.927Z,7.20
2017-04-14T10:59:26.933Z,5.70
2017-04-14T11:00:26.610Z,7.08
2017-04-14T11:01:26.620Z,6.27
2017-04-14T11:02:26.183Z,7.52
2017-04-14T11:03:26.608Z,7.92
2017-04-14T11:04:26.244Z,7.90
2017-04-14T11:05:25.816Z,7.60
2017-04-14T11:06:25.387Z,8.83
2017-04-14T11:07:24.967Z,5.65
2017-04-14T11:08:24.577Z,5.85
2017-04-14T11:09:24.153Z,5.85
2017-04-14T11:10:23.691Z,8.50
2017-04-14T11:11:23.286Z,5.00
2017-04-14T11:12:22.882Z,6.55
2017-04-14T11:13:23.163Z,5.80
2017-04-14T11:14:23.383Z,8.00
2017-04-14T11:15:22.987Z,5.88
2017-04-14T11:16:22.607Z,5.25
2017-04-14T11:17:22.135Z,6.17
2017-04-14T11:18:21.691Z,4.53
2017-04-14T11:19:21.420Z,9.08
2017-04-14T11:20:21.043Z,4.23
2017-04-14T11:21:20.711Z,5.23
2017-04-14T11:22:20.288Z,8.08
2017-04-14T11:23:19.958Z,5.23
2017-04-14T11:24:19.547Z,6.85
2017-04-14T11:25:19.163Z,4.07
2017-04-14T11:26:18.777Z,3.87
2017-04-14T11:27:18.343Z,3.75
2017-04-14T11:28:17.960Z,4.62
2017-04-14T11:29:17.488Z,3.83
2017-04-14T11:30:17.166Z,5.40
2017-04-14T11:31:17.415Z,3.65
2017-04-14T11:32:16.964Z,3.75
2017-04-14T11:33:16.654Z,4.55
2017-04-14T11:34:16.224Z,6.53
2017-04-14T11:35:15.869Z,5.20
2017-04-14T11:36:15.467Z,4.42
2017-04-14T11:37:15.379Z,5.40
2017-04-14T11:38:15.367Z,4.42
2017-04-14T11:39:16.279Z,5.50
2017-04-14T11:40:15.837Z,6.90
2017-04-14T11:41:15.463Z,3.77
2017-04-14T11:42:15.324Z,4.42
2017-04-14T11:43:14.943Z,3.25
2017-04-14T11:44:14.530Z,3.88
2017-04-14T11:45:14.207Z,4.02
2017-04-14T11:46:13.795Z,6.02
2017-04-14T11:47:13.386Z,3.17
2017-04-14T11:48:12.963Z,3.87
2017-04-14T11:49:12.578Z,5.55
2017-04-14T11:50:12.184Z,3.33
2017-04-14T11:51:11.771Z,5.08
2017-04-14T11:52:11.359Z,3.45
2017-04-14T11:53:10.955Z,4.68
2017-04-14T11:54:10.547Z,3.53
2017-04-14T11:55:10.203Z,5.28
2017-04-14T11:56:10.837Z,5.92
2017-04-14T11:57:10.401Z,4.53
2017-04-14T11:58:10.363Z,4.23
2017-04-14T11:59:10.631Z,3.02
2017-04-14T12:00:10.395Z,3.80
2017-04-14T12:01:09.955Z,3.70
2017-04-14T12:02:09.592Z,6.13
2017-04-14T12:03:09.205Z,3.05
2017-04-14T12:04:08.886Z,3.95
2017-04-14T12:05:08.472Z,3.50
2017-04-14T12:06:08.066Z,3.25
2017-04-14T12:07:07.688Z,5.38
2017-04-14T12:08:07.641Z,3.37
2017-04-14T12:09:07.294Z,4.53
2017-04-14T12:10:06.837Z,3.70
2017-04-14T12:11:06.775Z,3.37
2017-04-14T12:12:06.415Z,3.50
2017-04-14T12:13:05.961Z,2.90
2017-04-14T12:14:05.600Z,3.08
2017-04-14T12:15:05.112Z,4.02
2017-04-14T12:16:04.664Z,4.58
2017-04-14T12:17:04.275Z,3.67
2017-04-14T12:18:03.891Z,3.45
2017-04-14T12:19:03.585Z,6.20
2017-04-14T12:20:03.211Z,3.72
2017-04-14T12:21:02.779Z,4.03
2017-04-14T12:22:02.475Z,5.92
2017-04-14T12:23:02.004Z,3.78
2017-04-14T12:24:01.555Z,3.73
2017-04-14T12:25:01.135Z,4.62
2017-04-14T12:26:00.756Z,4.50
2017-04-14T12:27:00.352Z,3.32
2017-04-14T12:27:59.995Z,5.07
2017-04-14T12:29:00.282Z,3.17
2017-04-14T12:29:59.906Z,3.33
2017-04-14T12:30:59.506Z,3.13
2017-04-14T12:31:59.044Z,3.03
2017-04-14T12:32:58.624Z,3.90
2017-04-14T12:33:58.205Z,3.25
2017-04-14T12:34:57.779Z,3.08
2017-04-14T12:35:57.410Z,3.03
2017-04-14T12:36:57.026Z,2.95
2017-04-14T12:37:56.591Z,3.68
2017-04-14T12:38:56.286Z,4.53
2017-04-14T12:39:55.832Z,4.53
2017-04-14T12:40:55.482Z,5.42
2017-04-14T12:41:55.087Z,5.30
2017-04-14T12:42:54.815Z,3.82
2017-04-14T12:43:54.400Z,3.05
2017-04-14T12:44:54.056Z,3.08
2017-04-14T12:45:53.596Z,3.80
2017-04-14T12:46:53.195Z,3.48
2017-04-14T12:47:52.762Z,6.65
2017-04-14T12:48:52.407Z,3.07
2017-04-14T12:49:52.058Z,3.10
2017-04-14T12:50:51.634Z,3.82
2017-04-14T12:51:51.195Z,4.48
2017-04-14T12:52:50.830Z,4.82
2017-04-14T12:53:50.403Z,4.15
2017-04-14T12:54:50.077Z,2.73
2017-04-14T12:55:49.696Z,3.78
2017-04-14T12:56:49.274Z,2.63
2017-04-14T12:57:49.626Z,3.95
2017-04-14T12:58:49.220Z,3.23
2017-04-14T12:59:48.839Z,4.15
2017-04-14T13:00:48.451Z,3.52
2017-04-14T13:01:48.104Z,3.12
2017-04-14T13:02:47.747Z,2.57
2017-04-14T13:03:47.372Z,3.22
2017-04-14T13:04:46.975Z,3.78
2017-04-14T13:05:46.680Z,3.73
2017-04-14T13:06:46.284Z,3.07
2017-04-14T13:07:45.839Z,2.65
2017-04-14T13:08:45.427Z,3.22
2017-04-14T13:09:45.023Z,2.72
2017-04-14T13:10:44.609Z,5.82
2017-04-14T13:11:44.723Z,4.25
2017-04-14T13:12:44.523Z,3.40